La Route des Hèlviens - 09/05/2010

Grand parcours 161km


Pl Do. Nom - Surname Prénom - Name S-Cat Club - Team TEMPS - Time /sx /cat Vit.
1 514 HILAIRE Raphaël MD Team Scott Vélo 101 04:45:13 1 1 33,87
2 510 ROUX Jean-Pascal ME Team Scott Vélo 101 04:45:13 2 1 33,87
3 578 VOLF Loïc MC Nîmes AVC 04:48:15 3 1 33,51
4 619 BECARUD Thomas MC Manosque 04:48:15 4 2 33,51
5 515 DOUCET Laurent ME Saumur cyclisme 04:48:21 5 2 33,50
6 621 DUQUENNE Bruno MD Vaison-La-Romaine USC 04:48:23 6 2 33,50
7 618 COLOMINA Stéphan ME Vélo Plus 04:48:23 7 3 33,50
8 555 CHANAL Hervé ME Sarras-Ozon AL 04:48:27 8 4 33,49
9 500 FERNANDEZ Daniel ME Vénissieux ACMV 04:50:51 9 5 33,21
10 530 SEGURET Lionel MC Sarras-Ozon AL 04:52:50 10 3 32,99
11 571 MAILLARD Eric MD Les Angles VC 04:52:52 11 3 32,98
12 505 LE DROUMAGUET François ME Miramas VC 04:53:18 12 6 32,93
13 513 GILLY Hervé ME Team Scott Vélo 101 04:53:50 13 7 32,88
14 597 RICHARD Stanislas ME Jussy Vélo 04:54:48 14 8 32,77
15 511 LUBESPERRE Jean-François FSE Team Scott Vélo 101 04:55:21 15 1 32,71
16 605 CORREAS Liberto FSE Montagnac AC 04:55:23 16 2 32,70
17 613 CARNOL Ivan FSE Vecuies (Bel) 04:58:37 17 3 32,35
18 520 BREYSSE Florent MD Orange CC 04:59:31 18 4 32,25
19 589 GILLET Romuald ME Les Tourettes AC 04:59:43 19 9 32,23
20 604 LEMBLE Boris MD Les Angles 05:00:07 20 5 32,19
21 524 FOURNIER Yves ME Chamrousse TC 05:00:12 21 10 32,18
22 622 DAVID Guillaume ME Oisans UC 05:00:50 22 11 32,11
23 532 CLAIRET Thibault MD CHOMERAC RV 05:01:53 23 6 32,00
24 568 BOUCHET Alexandre MD Corconne AC 05:02:02 24 7 31,98
25 603 DESCHAMPS Olivier MD Cavaillon Véloroc 05:02:10 25 8 31,97
26 587 SOBOUL Laurent MD Aubenas UC 05:02:22 26 9 31,95
27 509 CLEYET-MAREL Ernest FSE Rhône-Alpes Cyclisme 05:06:52 27 4 31,48
28 543 DECOTTE Christian FSE Donzère TATC 26 05:09:43 28 5 31,19
29 557 CHAPELLE Jérémie MC Salindres VC 05:10:30 29 4 31,11
30 624 MESTRE Christophe MD Beaume de Venise 05:10:38 30 10 31,10
31 533 GONCALVES Serge ME Vénissieux ACMV 05:11:50 31 12 30,98
32 609 MORGAT Rolland MD VCS-TVP 05:14:44 32 11 30,69
33 620 BASSOT Patrick FSE Clapiers AC 05:15:14 33 6 30,64
34 563 VALENTIN David ME Nîmes SVC 05:15:46 34 13 30,59
35 574 BELLUT Maxime ME Jonage ES 05:17:04 35 14 30,47
36 583 ARDISSON David ME non licencié 05:17:08 36 15 30,46
37 628 MARAGA Claude FSE Univers Cycliste 05:17:21 37 7 30,44
38 544 BERTRAND Jean-Paul FSE Cyclo Team 69 05:17:22 38 8 30,44
39 623 ASTIC Antoine MD Sarras St Vallier C 05:18:38 39 12 30,32
40 612 FOURNIER Pascal ME Domzère26 ATC 05:19:15 40 16 30,26
41 584 BOYER Thierry ME Mauguio VC 05:19:16 41 17 30,26
42 527 PIOT Christophe ME Chamrousse TC 05:19:17 42 18 30,25
43 519 MENDEZ-NAVARRO Stéphane MD Sarras-Ozon AL 05:21:36 43 13 30,04
44 572 CHARDES Christophe MD Maruèjols EVC 05:21:38 44 14 30,03
45 579 CHARMASSON Ruben ME Maruèjols EVC 05:27:48 45 19 29,47
46 582 CHALENCON Christian FSE St Rambert VS 05:28:10 46 9 29,44
47 559 LOZE Yves MG Nîmes AVC 05:29:02 47 1 29,36
48 577 VALENTE Bruno ME Balaruc EC 05:31:27 48 20 29,14
49 614 SONIER Yvan ME St Rambert VS 05:32:19 49 21 29,07
50 580 PONS DE VINCENT Philippe FSE non licencié 05:44:16 50 10 28,06
51 508 FOUR Jean-Noël FSE Sarras-Ozon AL 05:44:16 51 11 28,06
52 560 BELIN Jean-Michel FSE Brignon VC 05:44:18 52 12 28,06
53 615 VERWAIJMEREN Donald FSE Wielerclub (Hollande) 05:44:18 53 13 28,06
54 567 MAURICE Grégory MC Nîmes AVC 05:48:35 54 5 27,71
55 537 BONNEFOY Alain MG Mauguio VC 05:49:56 55 2 27,60
56 523 DESPLANCHES Frédéric ME Chamrousse TC 06:00:07 56 22 26,82
57 504 LAGIER Michel FSE Miramas VC 06:01:53 57 14 26,69
58 553 DESCHEMAKER Franck ME Pernes CV 06:06:54 58 23 26,33
59 517 OZIOL Bernard FSE Brévannes AS 06:09:10 59 15 26,17
60 573 DE SOUSA Fernand FSE La Ciotat AVC 06:10:10 60 16 26,10
61 550 ROCHE Cathy FB Valréas VC 06:13:13 1 1 25,88
62 549 ROCHE Jean-François FSE Valréas VC 06:13:13 61 17 25,88
63 602 ARZOINE Maurice ME Nîmes Croco d'Airain 06:19:38 62 24 25,44
64 565 VALES Vincent ME St Saturnin-Les-Avignon UC 06:27:49 63 25 24,91
65 626 DELARBRE Patricia FB Salindres VC 06:43:27 2 2 23,94
66 506 ALIX Tony ME Montataire ASAM 07:50:14 64 26 20,54